createdAt,value
2023-02-24T00:02:20.300Z,53.05
2023-02-24T00:07:23.775Z,53.23
2023-02-24T00:12:28.756Z,54.65
2023-02-24T00:17:36.473Z,54.61
2023-02-24T00:22:42.234Z,54.45
2023-02-24T00:27:46.998Z,55.09
2023-02-24T00:32:52.585Z,56.02
2023-02-24T00:37:58.257Z,57.55
2023-02-24T00:43:03.401Z,62.62
2023-02-24T00:48:10.844Z,63.18
2023-02-24T00:53:14.327Z,62.04
2023-02-24T00:58:19.587Z,60.89
2023-02-24T01:03:23.059Z,62.11
2023-02-24T01:08:26.525Z,62.86
2023-02-24T01:13:31.410Z,62.93
2023-02-24T01:18:34.944Z,64.14
2023-02-24T01:23:38.372Z,65.26
2023-02-24T01:28:48.126Z,65.36
2023-02-24T01:33:52.214Z,67.33
2023-02-24T01:38:55.667Z,67.72
2023-02-24T01:44:03.540Z,65.59
2023-02-24T01:49:13.194Z,65.71
2023-02-24T01:54:22.339Z,65.73
2023-02-24T01:59:31.405Z,67.13
2023-02-24T02:04:40.724Z,66.21
2023-02-24T02:09:46.859Z,65.54
2023-02-24T02:14:55.031Z,66.85
2023-02-24T02:20:17.307Z,64.23
2023-02-24T02:25:35.606Z,64.34
2023-02-24T02:31:02.021Z,66.22
2023-02-24T02:36:19.340Z,65.80
2023-02-24T02:41:28.537Z,66.66
2023-02-24T02:46:43.269Z,65.50
2023-02-24T02:51:53.923Z,67.38
2023-02-24T02:57:05.298Z,65.08
2023-02-24T03:02:15.218Z,66.78
2023-02-24T03:07:23.877Z,64.57
2023-02-24T03:12:32.490Z,64.22
2023-02-24T03:17:41.923Z,64.56
2023-02-24T03:22:52.286Z,65.60
2023-02-24T03:28:02.737Z,64.93
2023-02-24T03:33:12.601Z,64.19
2023-02-24T03:38:17.333Z,64.02
2023-02-24T03:43:29.131Z,65.20
2023-02-24T03:48:38.320Z,64.09
2023-02-24T03:53:56.819Z,67.60
2023-02-24T03:59:12.799Z,64.37
2023-02-24T04:04:28.277Z,66.82
2023-02-24T04:09:52.642Z,67.38
2023-02-24T04:14:59.678Z,66.41
2023-02-24T04:20:12.872Z,65.19
2023-02-24T04:25:24.986Z,65.51
2023-02-24T04:30:32.545Z,65.70
2023-02-24T04:35:37.903Z,66.09
2023-02-24T04:40:43.251Z,67.08
2023-02-24T04:45:51.560Z,67.49
2023-02-24T04:50:55.316Z,69.00
2023-02-24T04:56:08.313Z,68.33
2023-02-24T05:01:12.063Z,72.22
2023-02-24T05:06:19.082Z,67.34
2023-02-24T05:11:27.428Z,62.83
2023-02-24T05:16:31.061Z,64.70
2023-02-24T05:21:36.818Z,72.00
2023-02-24T05:26:42.750Z,86.85
2023-02-24T05:31:46.645Z,71.62
2023-02-24T05:36:53.339Z,81.34
2023-02-24T05:41:58.085Z,74.48
2023-02-24T05:47:05.552Z,68.71
2023-02-24T05:52:18.500Z,67.75
2023-02-24T05:57:30.861Z,74.41
2023-02-24T06:02:37.745Z,73.53
2023-02-24T06:07:47.293Z,75.27
2023-02-24T06:12:53.595Z,74.15
2023-02-24T06:18:00.904Z,75.93
2023-02-24T06:23:05.357Z,75.19
2023-02-24T06:28:12.444Z,72.54
2023-02-24T06:33:15.833Z,71.19
2023-02-24T06:38:22.238Z,73.72
2023-02-24T06:43:27.133Z,68.51
2023-02-24T06:48:34.068Z,70.22
2023-02-24T06:53:43.308Z,70.32
2023-02-24T06:58:52.203Z,70.06
2023-02-24T07:04:19.897Z,66.24
2023-02-24T07:09:25.296Z,65.23
2023-02-24T07:14:32.210Z,64.82
2023-02-24T07:19:35.782Z,63.54
2023-02-24T07:24:46.111Z,64.64
2023-02-24T07:29:52.959Z,61.69
2023-02-24T07:34:59.655Z,60.17
2023-02-24T07:40:08.236Z,60.33
2023-02-24T07:45:15.693Z,61.97
2023-02-24T07:50:21.732Z,59.45
2023-02-24T07:55:25.969Z,56.90
2023-02-24T08:00:50.172Z,55.09
2023-02-24T08:05:55.926Z,52.06
2023-02-24T08:11:04.204Z,49.18
2023-02-24T08:16:09.595Z,49.12
2023-02-24T08:21:14.250Z,52.45
2023-02-24T08:26:19.590Z,50.68
2023-02-24T08:31:25.306Z,48.94
2023-02-24T08:36:29.054Z,51.55
2023-02-24T08:41:45.888Z,51.47
2023-02-24T08:46:53.239Z,49.42
2023-02-24T08:52:02.358Z,47.88
2023-02-24T08:57:09.113Z,45.79
2023-02-24T09:02:24.330Z,43.28
2023-02-24T09:07:29.437Z,41.69
2023-02-24T09:12:41.304Z,41.18
2023-02-24T09:17:51.045Z,39.66
2023-02-24T09:23:00.825Z,38.12
2023-02-24T09:28:08.351Z,43.16
2023-02-24T09:33:22.571Z,44.35
2023-02-24T09:38:46.248Z,40.33
2023-02-24T09:43:56.401Z,38.73
2023-02-24T09:49:07.133Z,40.08
2023-02-24T09:54:16.634Z,40.48
2023-02-24T09:59:28.156Z,38.04
2023-02-24T10:04:54.228Z,38.24
2023-02-24T10:10:19.528Z,38.00
2023-02-24T10:15:59.142Z,41.79
2023-02-24T10:21:15.650Z,36.85
2023-02-24T10:26:31.753Z,39.87
2023-02-24T10:31:43.455Z,40.09
2023-02-24T10:36:52.889Z,38.01
2023-02-24T10:41:58.301Z,36.96
2023-02-24T10:47:11.676Z,37.98
2023-02-24T10:52:36.776Z,33.29
2023-02-24T10:57:58.659Z,29.63
2023-02-24T11:03:19.435Z,26.32
2023-02-24T11:08:44.288Z,25.47
2023-02-24T11:14:09.414Z,25.01
2023-02-24T11:19:13.233Z,18.20
2023-02-24T11:24:20.226Z,17.70
2023-02-24T11:29:34.072Z,17.03
2023-02-24T11:34:49.464Z,19.23
2023-02-24T11:39:58.899Z,16.88
2023-02-24T11:45:09.369Z,17.70
2023-02-24T11:50:30.481Z,16.66
2023-02-24T11:55:42.546Z,17.79
2023-02-24T12:00:54.949Z,17.30
2023-02-24T12:06:04.025Z,19.18
2023-02-24T12:11:14.132Z,17.78
2023-02-24T12:16:21.628Z,18.54
2023-02-24T12:21:30.651Z,17.95
2023-02-24T12:26:42.813Z,18.22
2023-02-24T12:31:54.976Z,20.26
2023-02-24T12:37:23.059Z,19.59
2023-02-24T12:42:35.781Z,20.57
2023-02-24T12:47:47.125Z,20.04
2023-02-24T12:52:55.306Z,21.70
2023-02-24T12:58:09.021Z,20.74
2023-02-24T13:03:25.887Z,19.05
2023-02-24T13:08:42.344Z,17.51
2023-02-24T13:13:53.564Z,18.10
2023-02-24T13:19:05.795Z,18.54
2023-02-24T13:24:21.955Z,19.15
2023-02-24T13:29:26.717Z,17.76
2023-02-24T13:34:31.632Z,18.25
2023-02-24T13:39:41.478Z,18.76
2023-02-24T13:44:51.017Z,18.23
2023-02-24T13:50:04.892Z,19.67
2023-02-24T13:55:30.659Z,24.26
2023-02-24T14:00:53.705Z,27.24
2023-02-24T14:05:59.228Z,27.19
2023-02-24T14:11:10.189Z,25.36
2023-02-24T14:16:23.077Z,28.33
2023-02-24T14:21:29.050Z,28.98
2023-02-24T14:26:37.510Z,27.67
2023-02-24T14:31:42.828Z,27.89
2023-02-24T14:36:47.083Z,30.80
2023-02-24T14:42:04.311Z,28.38
2023-02-24T14:47:14.379Z,29.12
2023-02-24T14:52:25.866Z,30.70
2023-02-24T14:57:31.843Z,29.73
2023-02-24T15:02:44.082Z,30.00
2023-02-24T15:07:51.771Z,30.25
2023-02-24T15:13:00.738Z,27.80
2023-02-24T15:18:11.956Z,28.00
2023-02-24T15:23:29.677Z,31.56
2023-02-24T15:28:34.155Z,30.57
2023-02-24T15:33:41.073Z,29.30
2023-02-24T15:38:46.062Z,32.43
2023-02-24T15:43:56.095Z,30.34
2023-02-24T15:49:03.277Z,30.18
2023-02-24T15:54:13.393Z,30.45
2023-02-24T15:59:21.957Z,29.55
2023-02-24T16:04:29.703Z,29.67
2023-02-24T16:09:37.434Z,28.39
2023-02-24T16:14:41.313Z,30.49
2023-02-24T16:19:46.072Z,29.54
2023-02-24T16:24:51.743Z,24.57
2023-02-24T16:29:55.113Z,22.56
2023-02-24T16:35:00.047Z,22.53
2023-02-24T16:40:06.020Z,18.78
2023-02-24T16:45:11.490Z,20.88
2023-02-24T16:50:21.737Z,18.45
2023-02-24T16:55:27.898Z,18.78
2023-02-24T17:00:31.400Z,18.45
2023-02-24T17:05:38.509Z,17.93
2023-02-24T17:10:43.628Z,18.86
2023-02-24T17:15:47.090Z,17.83
2023-02-24T17:20:51.958Z,18.85
2023-02-24T17:25:57.122Z,22.09
2023-02-24T17:31:03.601Z,16.26
2023-02-24T17:36:08.946Z,15.15
2023-02-24T17:41:12.336Z,16.46
2023-02-24T17:46:15.762Z,16.60
2023-02-24T17:51:22.524Z,16.41
2023-02-24T17:56:25.948Z,15.89
2023-02-24T18:01:29.857Z,22.42
2023-02-24T18:06:36.913Z,16.68
2023-02-24T18:11:40.497Z,17.17
2023-02-24T18:16:43.927Z,16.35
2023-02-24T18:21:48.690Z,15.73
2023-02-24T18:26:54.621Z,15.43
2023-02-24T18:31:58.580Z,15.83
2023-02-24T18:37:05.729Z,16.08
2023-02-24T18:42:09.839Z,14.99
2023-02-24T18:47:13.183Z,17.85
2023-02-24T18:52:18.113Z,16.12
2023-02-24T18:57:21.687Z,16.11
2023-02-24T19:02:25.196Z,17.12
2023-02-24T19:07:32.350Z,17.76
2023-02-24T19:12:39.220Z,17.71
2023-02-24T19:17:42.607Z,17.84
2023-02-24T19:22:51.609Z,17.21
2023-02-24T19:27:55.173Z,23.39
2023-02-24T19:33:00.986Z,20.11
2023-02-24T19:38:06.052Z,18.04
2023-02-24T19:43:09.933Z,18.18
2023-02-24T19:48:16.347Z,17.70
2023-02-24T19:53:21.088Z,17.98
2023-02-24T19:58:24.745Z,20.11
2023-02-24T20:03:28.392Z,19.63
2023-02-24T20:08:36.409Z,29.29
2023-02-24T20:13:41.217Z,20.76
2023-02-24T20:18:45.373Z,23.13
2023-02-24T20:23:51.713Z,29.29
2023-02-24T20:29:01.655Z,26.85
2023-02-24T20:34:08.974Z,32.10
2023-02-24T20:39:13.397Z,32.04
2023-02-24T20:44:23.682Z,31.63
2023-02-24T20:49:27.948Z,31.96
2023-02-24T20:54:31.436Z,30.36
2023-02-24T20:59:40.081Z,30.35
2023-02-24T21:04:46.135Z,30.54
2023-02-24T21:09:52.208Z,32.11
2023-02-24T21:14:56.999Z,31.14
2023-02-24T21:20:01.658Z,32.67
2023-02-24T21:25:05.334Z,31.14
2023-02-24T21:30:11.160Z,33.93
2023-02-24T21:35:16.904Z,32.81
2023-02-24T21:40:23.863Z,33.04
2023-02-24T21:45:28.831Z,30.64
2023-02-24T21:50:38.206Z,43.53
2023-02-24T21:55:44.664Z,28.76
2023-02-24T22:00:51.967Z,28.74
2023-02-24T22:05:58.010Z,27.38
2023-02-24T22:11:03.879Z,27.06
2023-02-24T22:16:09.834Z,27.36
2023-02-24T22:21:17.142Z,29.23
2023-02-24T22:26:22.981Z,37.27
2023-02-24T22:31:29.172Z,40.57
2023-02-24T22:36:34.410Z,40.63
2023-02-24T22:41:38.461Z,41.55
2023-02-24T22:46:46.299Z,44.96
2023-02-24T22:51:49.852Z,46.16
2023-02-24T22:56:56.139Z,45.60
2023-02-24T23:02:01.003Z,41.98
2023-02-24T23:07:04.520Z,43.34
2023-02-24T23:12:11.632Z,51.13
2023-02-24T23:17:16.582Z,44.27
2023-02-24T23:22:22.157Z,42.36
2023-02-24T23:27:25.606Z,38.68
2023-02-24T23:32:30.581Z,37.15
2023-02-24T23:37:34.135Z,38.35
2023-02-24T23:42:38.486Z,38.35
2023-02-24T23:47:43.454Z,36.60
2023-02-24T23:52:50.018Z,33.47
2023-02-24T23:57:55.955Z,31.81
